Portada
METAR-TAF:

METAR-TAF

Aeropuertos :

Aeropuerto de León

León, España

latitud: 42-35N, longitud: 005-39W, altitud: 926 m

Observación

El informe se hizo hace 24 minutos, a las 18:00 UTC
Viento 8 kt del norte, variando entre noroeste y norte-noreste
Temperatura 25°C
Humedad 24%
Presión 1025 hPa
Visibilidad 10 km o más
sin nubes por debajo de 1500 m y sin presencia de cumulonimbus.

METAR: LELN 261800Z 35008KT 310V030 CAVOK 25/03 Q1025

Hora: 20:24 (18:24 UTC)

Pronóstico

El informe se hizo hace 4 horas y 24 minutos, a las 14:00 UTC
Pronóstico válido del 26 a las 15 UTC al 27 a las 15 UTC
Viento 7 kt del norte
Visibilidad 10 km o más
sin nubes por debajo de 1500 m y sin presencia de cumulonimbus.
Probabilidad 30% :
Temporalmente
del 26 a las 15 UTC al 26 a las 18 UTC
Viento 15 kt del norte con ráfagas de 25 kt

TAF: LELN 261400Z 2615/2715 36007KT CAVOK TX29/2715Z TN09/2706Z PROB30 TEMPO 2615/2618 01015G25KT

Observaciones y pronósticos meteorológicos de más de 4000 aeropuertos (mensajes METAR y TAF).

Los puntos amarillos y rojos representan las estaciones disponibles.

Ponga el ratón en el punto deseado para ver el nombre de la estación.

Haga clic para ver las observaciones y los pronósticos meteorológicos.

Para cambiar el mapa : haga clic en los botones verdes con una cruz de color negro para hacer un zoom, en el botón verde con un guión para alejar o en las flechas verdes para mapas adyacentes.


METAR-TAF: